createdAt,value
2019-02-01T00:00:40.971Z,-1.19
2019-02-01T00:01:50.927Z,-1.17
2019-02-01T00:03:00.869Z,-1.18
2019-02-01T00:04:10.808Z,-1.21
2019-02-01T00:05:20.726Z,-1.22
2019-02-01T00:06:30.427Z,-1.18
2019-02-01T00:07:40.133Z,-1.19
2019-02-01T00:08:49.824Z,-1.15
2019-02-01T00:09:59.510Z,-1.19
2019-02-01T00:11:08.697Z,-1.17
2019-02-01T00:12:18.636Z,-1.19
2019-02-01T00:13:28.650Z,-1.19
2019-02-01T00:14:38.586Z,-1.22
2019-02-01T00:15:48.533Z,-1.29
2019-02-01T00:16:58.506Z,-1.25
2019-02-01T00:18:11.801Z,-1.3
2019-02-01T00:19:21.740Z,-1.36
2019-02-01T00:20:31.668Z,-1.29
2019-02-01T00:21:41.611Z,-1.32
2019-02-01T00:22:51.554Z,-1.35
2019-02-01T00:24:01.233Z,-1.46
2019-02-01T00:25:11.185Z,-1.42
2019-02-01T00:26:21.112Z,-1.4
2019-02-01T00:27:30.786Z,-1.45
2019-02-01T00:28:40.475Z,-1.38
2019-02-01T00:29:50.156Z,-1.48
2019-02-01T00:31:00.112Z,-1.54
2019-02-01T00:32:09.551Z,-1.5
2019-02-01T00:33:31.762Z,-1.46
2019-02-01T00:34:41.448Z,-1.6
2019-02-01T00:35:51.391Z,-1.54
2019-02-01T00:37:01.437Z,-1.57
2019-02-01T00:38:11.381Z,-1.58
2019-02-01T00:39:21.070Z,-1.58
2019-02-01T00:40:30.767Z,-1.64
2019-02-01T00:41:40.195Z,-1.74
2019-02-01T00:42:50.122Z,-1.61
2019-02-01T00:43:59.806Z,-1.6
2019-02-01T00:45:09.752Z,-1.57
2019-02-01T00:46:19.715Z,-1.61
2019-02-01T00:47:29.401Z,-1.72
2019-02-01T00:48:39.340Z,-1.71
2019-02-01T00:49:49.036Z,-1.74
2019-02-01T00:50:58.471Z,-1.68
2019-02-01T00:52:08.170Z,-1.75
2019-02-01T00:53:18.110Z,-1.75
2019-02-01T00:54:28.040Z,-1.76
2019-02-01T00:55:37.470Z,-1.68
2019-02-01T00:56:47.412Z,-1.71
2019-02-01T00:57:57.093Z,-1.71
2019-02-01T00:59:07.034Z,-1.72
2019-02-01T01:00:17.065Z,-1.72
2019-02-01T01:01:27.010Z,-1.75
2019-02-01T01:02:36.977Z,-1.81
2019-02-01T01:03:46.904Z,-1.87
2019-02-01T01:04:56.600Z,-1.86
2019-02-01T01:06:06.536Z,-1.75
2019-02-01T01:07:16.500Z,-1.89
2019-02-01T01:08:26.447Z,-1.87
2019-02-01T01:09:36.130Z,-1.87
2019-02-01T01:10:45.812Z,-1.87
2019-02-01T01:11:55.511Z,-1.84
2019-02-01T01:13:05.444Z,-1.87
2019-02-01T01:14:15.401Z,-1.81
2019-02-01T01:15:25.345Z,-1.75
2019-02-01T01:16:35.301Z,-1.87
2019-02-01T01:17:45.235Z,-1.87
2019-02-01T01:18:55.177Z,-1.9
2019-02-01T01:20:05.247Z,-1.82
2019-02-01T01:21:15.175Z,-1.84
2019-02-01T01:22:25.112Z,-1.84
2019-02-01T01:23:35.117Z,-1.78
2019-02-01T01:24:45.054Z,-1.87
2019-02-01T01:25:54.744Z,-1.79
2019-02-01T01:27:04.430Z,-1.86
2019-02-01T01:28:14.375Z,-1.89
2019-02-01T01:29:24.407Z,-1.76
2019-02-01T01:30:34.363Z,-1.76
2019-02-01T01:31:43.867Z,-1.76
2019-02-01T01:32:53.798Z,-1.75
2019-02-01T01:34:03.751Z,-1.78
2019-02-01T01:35:13.672Z,-1.75
2019-02-01T01:36:23.365Z,-1.74
2019-02-01T01:37:33.297Z,-1.76
2019-02-01T01:38:43.242Z,-1.78
2019-02-01T01:39:53.211Z,-1.76
2019-02-01T01:41:02.898Z,-1.75
2019-02-01T01:42:12.574Z,-1.82
2019-02-01T01:43:22.509Z,-1.86
2019-02-01T01:44:32.543Z,-1.89
2019-02-01T01:45:42.488Z,-1.86
2019-02-01T01:46:52.416Z,-1.9
2019-02-01T01:48:02.363Z,-1.87
2019-02-01T01:49:12.294Z,-1.86
2019-02-01T01:50:22.278Z,-1.9
2019-02-01T01:51:32.221Z,-1.87
2019-02-01T01:52:42.157Z,-1.84
2019-02-01T01:53:51.582Z,-1.89
2019-02-01T01:55:01.389Z,-1.92
2019-02-01T01:56:11.063Z,-1.82
2019-02-01T01:57:20.747Z,-1.93
2019-02-01T01:58:30.840Z,-1.93
2019-02-01T01:59:40.789Z,-1.99
2019-02-01T02:00:50.240Z,-1.93
2019-02-01T02:02:00.276Z,-1.99
2019-02-01T02:03:10.205Z,-1.97
2019-02-01T02:04:20.157Z,-2.05
2019-02-01T02:05:30.088Z,-2.02
2019-02-01T02:06:40.032Z,-2.02
2019-02-01T02:07:49.713Z,-2.07
2019-02-01T02:08:59.636Z,-1.99
2019-02-01T02:10:09.561Z,-2
2019-02-01T02:11:19.509Z,-2.05
2019-02-01T02:12:29.181Z,-2.05
2019-02-01T02:13:38.859Z,-2
2019-02-01T02:14:48.305Z,-2.05
2019-02-01T02:15:58.249Z,-2.05
2019-02-01T02:17:08.183Z,-2.05
2019-02-01T02:18:17.861Z,-2.05
2019-02-01T02:19:27.827Z,-2.04
2019-02-01T02:20:37.761Z,-1.97
2019-02-01T02:21:47.546Z,-2.04
2019-02-01T02:22:57.512Z,-2.05
2019-02-01T02:24:07.463Z,-2.07
2019-02-01T02:25:17.395Z,-1.93
2019-02-01T02:26:27.328Z,-2.11
2019-02-01T02:27:37.254Z,-2.1
2019-02-01T02:28:47.298Z,-2.15
2019-02-01T02:29:56.980Z,-2.04
2019-02-01T02:31:07.099Z,-2.08
2019-02-01T02:32:17.126Z,-2
2019-02-01T02:33:27.135Z,-2.08
2019-02-01T02:34:37.080Z,-2.13
2019-02-01T02:35:47.039Z,-2.04
2019-02-01T02:36:56.492Z,-2.08
2019-02-01T02:38:05.923Z,-2.07
2019-02-01T02:39:15.855Z,-2.08
2019-02-01T02:40:25.840Z,-2.2
2019-02-01T02:41:35.288Z,-2.15
2019-02-01T02:42:45.234Z,-2.13
2019-02-01T02:43:54.964Z,-2.13
2019-02-01T02:45:04.665Z,-2.18
2019-02-01T02:46:14.359Z,-2.23
2019-02-01T02:47:26.826Z,-2.14
2019-02-01T02:48:36.257Z,-2.15
2019-02-01T02:49:46.189Z,-2.2
2019-02-01T02:50:55.897Z,-2.23
2019-02-01T02:52:05.829Z,-2.28
2019-02-01T02:53:15.768Z,-2.32
2019-02-01T02:54:25.535Z,-2.32
2019-02-01T02:55:35.245Z,-2.34
2019-02-01T02:56:45.199Z,-2.32
2019-02-01T02:57:54.911Z,-2.29
2019-02-01T02:59:04.862Z,-2.34
2019-02-01T03:00:14.817Z,-2.29
2019-02-01T03:01:24.510Z,-2.23
2019-02-01T03:02:34.456Z,-2.32
2019-02-01T03:03:44.401Z,-2.28
2019-02-01T03:04:54.375Z,-2.26
2019-02-01T03:06:04.293Z,-2.26
2019-02-01T03:07:14.237Z,-2.28
2019-02-01T03:08:24.210Z,-2.28
2019-02-01T03:09:34.142Z,-2.32
2019-02-01T03:10:43.825Z,-2.29
2019-02-01T03:11:53.501Z,-2.32
2019-02-01T03:13:03.175Z,-2.39
2019-02-01T03:14:13.141Z,-2.44
2019-02-01T03:15:23.098Z,-2.39
2019-02-01T03:16:32.530Z,-2.29
2019-02-01T03:17:42.461Z,-2.34
2019-02-01T03:18:51.908Z,-2.36
2019-02-01T03:20:02.077Z,-2.44
2019-02-01T03:21:11.998Z,-2.42
2019-02-01T03:22:21.822Z,-2.36
2019-02-01T03:23:31.515Z,-2.39
2019-02-01T03:24:41.192Z,-2.4
2019-02-01T03:25:51.146Z,-2.47
2019-02-01T03:27:00.834Z,-2.47
2019-02-01T03:28:10.551Z,-2.39
2019-02-01T03:29:20.492Z,-2.52
2019-02-01T03:30:30.479Z,-2.5
2019-02-01T03:31:40.483Z,-2.52
2019-02-01T03:32:50.496Z,-2.47
2019-02-01T03:34:00.552Z,-2.51
2019-02-01T03:35:10.503Z,-2.55
2019-02-01T03:36:20.203Z,-2.63
2019-02-01T03:37:29.888Z,-2.61
2019-02-01T03:38:39.822Z,-2.62
2019-02-01T03:39:49.498Z,-2.62
2019-02-01T03:40:59.480Z,-2.58
2019-02-01T03:42:09.202Z,-2.57
2019-02-01T03:43:19.201Z,-2.57
2019-02-01T03:44:29.190Z,-2.52
2019-02-01T03:45:39.127Z,-2.58
2019-02-01T03:46:48.811Z,-2.63
2019-02-01T03:47:58.766Z,-2.57
2019-02-01T03:49:08.719Z,-2.66
2019-02-01T03:50:30.414Z,-2.63
2019-02-01T03:51:40.341Z,-2.54
2019-02-01T03:52:50.425Z,-2.51
2019-02-01T03:54:00.410Z,-2.51
2019-02-01T03:55:10.353Z,-2.61
2019-02-01T03:56:20.036Z,-2.54
2019-02-01T03:57:29.737Z,-2.58
2019-02-01T03:58:39.175Z,-2.57
2019-02-01T03:59:49.118Z,-2.57
2019-02-01T04:00:59.072Z,-2.58
2019-02-01T04:02:08.769Z,-2.54
2019-02-01T04:03:18.484Z,-2.58
2019-02-01T04:04:28.154Z,-2.58
2019-02-01T04:05:37.847Z,-2.55
2019-02-01T04:06:47.550Z,-2.54
2019-02-01T04:07:57.232Z,-2.54
2019-02-01T04:09:07.167Z,-2.51
2019-02-01T04:10:17.251Z,-2.57
2019-02-01T04:11:26.943Z,-2.63
2019-02-01T04:12:36.873Z,-2.55
2019-02-01T04:13:46.305Z,-2.55
2019-02-01T04:14:56.263Z,-2.57
2019-02-01T04:16:05.957Z,-2.5
2019-02-01T04:17:15.664Z,-2.58
2019-02-01T04:18:25.598Z,-2.61
2019-02-01T04:19:52.968Z,-2.52
2019-02-01T04:21:02.404Z,-2.57
2019-02-01T04:22:11.832Z,-2.61
2019-02-01T04:23:21.765Z,-2.5
2019-02-01T04:24:31.282Z,-2.48
2019-02-01T04:25:41.282Z,-2.5
2019-02-01T04:26:50.964Z,-2.54
2019-02-01T04:28:00.895Z,-2.47
2019-02-01T04:29:10.591Z,-2.48
2019-02-01T04:30:20.295Z,-2.57
2019-02-01T04:31:30.283Z,-2.54
2019-02-01T04:32:40.416Z,-2.5
2019-02-01T04:33:50.363Z,-2.58
2019-02-01T04:35:00.543Z,-2.51
2019-02-01T04:36:10.379Z,-2.45
2019-02-01T04:37:20.314Z,-2.5
2019-02-01T04:38:29.744Z,-2.5
2019-02-01T04:39:39.673Z,-2.57
2019-02-01T04:40:49.610Z,-2.48
2019-02-01T04:41:59.575Z,-2.5
2019-02-01T04:43:09.510Z,-2.44
2019-02-01T04:44:19.267Z,-2.5
2019-02-01T04:45:28.709Z,-2.52
2019-02-01T04:46:38.392Z,-2.5
2019-02-01T04:47:48.509Z,-2.48
2019-02-01T04:48:58.454Z,-2.52
2019-02-01T04:50:09.086Z,-2.5
2019-02-01T04:51:19.124Z,-2.44
2019-02-01T04:52:28.822Z,-2.47
2019-02-01T04:53:38.263Z,-2.47
2019-02-01T04:54:47.948Z,-2.58
2019-02-01T04:55:57.874Z,-2.52
2019-02-01T04:57:07.567Z,-2.57
2019-02-01T04:58:17.500Z,-2.57
2019-02-01T04:59:27.437Z,-2.63
2019-02-01T05:00:37.575Z,-2.61
2019-02-01T05:01:47.508Z,-2.54
2019-02-01T05:02:57.451Z,-2.61
2019-02-01T05:04:07.422Z,-2.51
2019-02-01T05:05:17.145Z,-2.57
2019-02-01T05:06:27.093Z,-2.57
2019-02-01T05:07:37.027Z,-2.61
2019-02-01T05:08:46.990Z,-2.57
2019-02-01T05:09:56.932Z,-2.54
2019-02-01T05:11:06.641Z,-2.5
2019-02-01T05:12:16.320Z,-2.51
2019-02-01T05:13:26.271Z,-2.58
2019-02-01T05:14:36.214Z,-2.52
2019-02-01T05:15:45.956Z,-2.55
2019-02-01T05:16:55.394Z,-2.47
2019-02-01T05:18:05.495Z,-2.52
2019-02-01T05:19:15.194Z,-2.57
2019-02-01T05:20:25.965Z,-2.52
2019-02-01T05:21:35.928Z,-2.5
2019-02-01T05:22:45.357Z,-2.48
2019-02-01T05:23:55.297Z,-2.51
2019-02-01T05:25:05.012Z,-2.48
2019-02-01T05:26:14.710Z,-2.44
2019-02-01T05:27:24.137Z,-2.48
2019-02-01T05:28:33.838Z,-2.48
2019-02-01T05:29:43.788Z,-2.5
2019-02-01T05:30:53.743Z,-2.47
2019-02-01T05:32:03.688Z,-2.51
2019-02-01T05:33:13.377Z,-2.48
2019-02-01T05:34:23.442Z,-2.44
2019-02-01T05:35:33.420Z,-2.47
2019-02-01T05:36:43.382Z,-2.47
2019-02-01T05:37:53.323Z,-2.42
2019-02-01T05:39:03.054Z,-2.39
2019-02-01T05:40:12.825Z,-2.33
2019-02-01T05:41:22.526Z,-2.32
2019-02-01T05:42:32.206Z,-2.34
2019-02-01T05:43:41.900Z,-2.33
2019-02-01T05:44:51.588Z,-2.33
2019-02-01T05:46:01.532Z,-2.28
2019-02-01T05:47:11.210Z,-2.26
2019-02-01T05:48:20.925Z,-2.14
2019-02-01T05:49:30.962Z,-2.2
2019-02-01T05:50:40.905Z,-2.17
2019-02-01T05:51:50.832Z,-2.15
2019-02-01T05:53:00.778Z,-2.18
2019-02-01T05:54:10.466Z,-2.18
2019-02-01T05:55:20.158Z,-2.11
2019-02-01T05:56:30.106Z,-2.15
2019-02-01T05:57:40.071Z,-2.2
2019-02-01T05:58:50.027Z,-2.17
2019-02-01T05:59:59.544Z,-2.11
2019-02-01T06:01:08.994Z,-2.17
2019-02-01T06:02:18.918Z,-2.15
2019-02-01T06:03:28.856Z,-2.15
2019-02-01T06:04:38.797Z,-2.17
2019-02-01T06:05:48.486Z,-2.15
2019-02-01T06:06:58.417Z,-2.13
2019-02-01T06:08:08.347Z,-2.17
2019-02-01T06:09:18.039Z,-2.05
2019-02-01T06:10:28.004Z,-2.14
2019-02-01T06:11:37.975Z,-2.1
2019-02-01T06:12:47.940Z,-2.15
2019-02-01T06:13:57.621Z,-2.15
2019-02-01T06:15:07.565Z,-2.18
2019-02-01T06:16:17.266Z,-2.1
2019-02-01T06:17:27.208Z,-2.14
2019-02-01T06:18:37.136Z,-2.14
2019-02-01T06:19:46.824Z,-2.08
2019-02-01T06:20:56.771Z,-2.1
2019-02-01T06:22:07.918Z,-2.08
2019-02-01T06:23:17.598Z,-2.1
2019-02-01T06:24:27.282Z,-2.1
2019-02-01T06:25:37.222Z,-1.99
2019-02-01T06:26:47.182Z,-1.97
2019-02-01T06:27:57.132Z,-2
2019-02-01T06:29:06.842Z,-1.96
2019-02-01T06:30:16.525Z,-1.97
2019-02-01T06:31:27.758Z,-1.97
2019-02-01T06:32:37.226Z,-1.99
2019-02-01T06:33:46.940Z,-2
2019-02-01T06:34:56.640Z,-1.99
2019-02-01T06:36:06.348Z,-1.99
2019-02-01T06:37:16.038Z,-1.97
2019-02-01T06:38:26.007Z,-1.97
2019-02-01T06:39:35.953Z,-1.89
2019-02-01T06:40:45.632Z,-2
2019-02-01T06:41:55.336Z,-1.97
2019-02-01T06:43:05.434Z,-1.97
2019-02-01T06:44:15.373Z,-1.99
2019-02-01T06:45:25.069Z,-1.87
2019-02-01T06:46:35.043Z,-1.9
2019-02-01T06:47:44.796Z,-1.96
2019-02-01T06:48:54.480Z,-1.94
2019-02-01T06:50:04.203Z,-1.93
2019-02-01T06:51:14.146Z,-1.94
2019-02-01T06:52:23.836Z,-1.96
2019-02-01T06:53:33.780Z,-1.92
2019-02-01T06:54:43.712Z,-1.93
2019-02-01T06:55:53.650Z,-1.93
2019-02-01T06:57:03.604Z,-1.97
2019-02-01T06:58:13.325Z,-1.9
2019-02-01T06:59:23.261Z,-1.96
2019-02-01T07:00:33.212Z,-1.9
2019-02-01T07:01:43.200Z,-1.84
2019-02-01T07:02:52.882Z,-1.97
2019-02-01T07:04:02.944Z,-1.93
2019-02-01T07:05:12.888Z,-1.93
2019-02-01T07:06:22.821Z,-1.94
2019-02-01T07:07:32.281Z,-1.97
2019-02-01T07:08:41.966Z,-1.92
2019-02-01T07:09:51.919Z,-2.02
2019-02-01T07:11:01.607Z,-1.96
2019-02-01T07:12:11.686Z,-1.94
2019-02-01T07:13:21.667Z,-1.94
2019-02-01T07:14:31.648Z,-2
2019-02-01T07:15:41.332Z,-1.92
2019-02-01T07:16:51.271Z,-2
2019-02-01T07:18:01.326Z,-1.93
2019-02-01T07:19:11.267Z,-1.96
2019-02-01T07:20:21.217Z,-2
2019-02-01T07:21:31.147Z,-1.97
2019-02-01T07:22:40.847Z,-1.87
2019-02-01T07:23:50.538Z,-1.84
2019-02-01T07:25:00.004Z,-1.86
2019-02-01T07:26:09.972Z,-1.93
2019-02-01T07:27:19.901Z,-1.84
2019-02-01T07:28:29.351Z,-1.89
2019-02-01T07:29:39.100Z,-1.87
2019-02-01T07:30:48.805Z,-1.92
2019-02-01T07:31:58.740Z,-1.72
2019-02-01T07:33:08.677Z,-1.75
2019-02-01T07:34:19.971Z,-1.75
2019-02-01T07:35:29.404Z,-1.72
2019-02-01T07:36:38.597Z,-1.74
2019-02-01T07:37:48.270Z,-1.54
2019-02-01T07:38:58.207Z,-1.63
2019-02-01T07:40:07.897Z,-1.57
2019-02-01T07:41:17.824Z,-1.54
2019-02-01T07:42:27.514Z,-1.53
2019-02-01T07:43:37.224Z,-1.54
2019-02-01T07:44:46.650Z,-1.5
2019-02-01T07:45:56.590Z,-1.56
2019-02-01T07:47:06.545Z,-1.53
2019-02-01T07:48:16.501Z,-1.58
2019-02-01T07:49:26.451Z,-1.39
2019-02-01T07:50:36.143Z,-1.43
2019-02-01T07:51:45.812Z,-1.38
2019-02-01T07:52:57.950Z,-1.32
2019-02-01T07:54:07.888Z,-1.36
2019-02-01T07:55:17.831Z,-1.35
2019-02-01T07:56:27.771Z,-1.39
2019-02-01T07:57:37.701Z,-1.36
2019-02-01T07:58:47.670Z,-1.39
2019-02-01T07:59:57.361Z,-1.35
2019-02-01T08:01:07.052Z,-1.27
2019-02-01T08:02:16.742Z,-1.36
2019-02-01T08:03:26.413Z,-1.3
2019-02-01T08:04:36.359Z,-1.27
2019-02-01T08:05:45.791Z,-1.27
2019-02-01T08:06:55.478Z,-1.32
2019-02-01T08:08:05.478Z,-1.29
2019-02-01T08:09:15.422Z,-1.15
2019-02-01T08:10:25.133Z,-1.25
2019-02-01T08:11:35.072Z,-1.21
2019-02-01T08:12:45.017Z,-1.07
2019-02-01T08:13:54.467Z,-1.07
2019-02-01T08:15:04.407Z,-1.12
2019-02-01T08:16:14.355Z,-1.11
2019-02-01T08:17:24.303Z,-1.04
2019-02-01T08:18:34.241Z,-1
2019-02-01T08:19:44.191Z,-1.01
2019-02-01T08:20:58.625Z,-1.06
2019-02-01T08:22:08.583Z,-1
2019-02-01T08:23:18.322Z,-1
2019-02-01T08:24:28.359Z,-0.97
2019-02-01T08:25:38.062Z,-0.89
2019-02-01T08:26:48.031Z,-0.87
2019-02-01T08:27:57.493Z,-0.75
2019-02-01T08:29:07.250Z,-0.69
2019-02-01T08:30:17.198Z,-0.72
2019-02-01T08:31:27.312Z,-0.75
2019-02-01T08:32:37.015Z,-0.66
2019-02-01T08:33:46.708Z,-0.72
2019-02-01T08:34:56.159Z,-0.62
2019-02-01T08:36:05.611Z,-0.6
2019-02-01T08:37:15.321Z,-0.53
2019-02-01T08:38:24.791Z,-0.57
2019-02-01T08:39:34.471Z,-0.56
2019-02-01T08:40:44.154Z,-0.49
2019-02-01T08:41:53.861Z,-0.48
2019-02-01T08:43:11.285Z,-0.42
2019-02-01T08:44:21.233Z,-0.39
2019-02-01T08:45:31.183Z,-0.38
2019-02-01T08:46:41.141Z,-0.51
2019-02-01T08:47:50.611Z,-0.42
2019-02-01T08:49:00.073Z,-0.53
2019-02-01T08:50:10.277Z,-0.59
2019-02-01T08:51:20.250Z,-0.6
2019-02-01T08:52:30.215Z,-0.63
2019-02-01T08:53:40.179Z,-0.62
2019-02-01T08:54:50.041Z,-0.48
2019-02-01T08:55:59.481Z,-0.56
2019-02-01T08:57:09.461Z,-0.59
2019-02-01T08:58:19.419Z,-0.45
2019-02-01T08:59:29.197Z,-0.53
2019-02-01T09:00:38.666Z,-0.48
2019-02-01T09:01:48.748Z,-0.46
2019-02-01T09:02:58.483Z,-0.51
2019-02-01T09:04:08.191Z,-0.46
2019-02-01T09:05:18.192Z,-0.45
2019-02-01T09:06:28.140Z,-0.41
2019-02-01T09:07:38.102Z,-0.41
2019-02-01T09:08:47.922Z,-0.38
2019-02-01T09:09:57.874Z,-0.38
2019-02-01T09:11:07.921Z,-0.35
2019-02-01T09:12:17.911Z,-0.35
2019-02-01T09:13:27.875Z,-0.33
2019-02-01T09:14:37.825Z,-0.3
2019-02-01T09:15:47.592Z,-0.35
2019-02-01T09:16:57.535Z,-0.24
2019-02-01T09:18:07.487Z,-0.24
2019-02-01T09:19:17.418Z,-0.28
2019-02-01T09:20:27.441Z,-0.15
2019-02-01T09:21:37.398Z,-0.2
2019-02-01T09:22:58.204Z,-0.23
2019-02-01T09:24:07.921Z,-0.17
2019-02-01T09:25:17.646Z,-0.15
2019-02-01T09:26:27.605Z,-0.17
2019-02-01T09:27:37.557Z,-0.18
2019-02-01T09:28:47.512Z,-0.15
2019-02-01T09:29:57.260Z,-0.12
2019-02-01T09:31:07.247Z,-0.12
2019-02-01T09:32:17.239Z,-0.02
2019-02-01T09:33:27.215Z,-0.02
2019-02-01T09:34:37.246Z,0.02
2019-02-01T09:35:47.216Z,-0.06
2019-02-01T09:36:56.920Z,0.12
2019-02-01T09:38:06.871Z,0.08
2019-02-01T09:39:16.830Z,0.06
2019-02-01T09:40:26.787Z,0.02
2019-02-01T09:41:36.477Z,0.11
2019-02-01T09:42:46.415Z,0.05
2019-02-01T09:43:55.850Z,0.11
2019-02-01T09:45:07.286Z,0.16
2019-02-01T09:46:17.162Z,0.18
2019-02-01T09:47:27.100Z,0.19
2019-02-01T09:48:36.808Z,0.24
2019-02-01T09:49:46.745Z,0.26
2019-02-01T09:50:56.464Z,0.36
2019-02-01T09:52:10.344Z,0.23
2019-02-01T09:53:20.343Z,0.37
2019-02-01T09:54:30.411Z,0.23
2019-02-01T09:55:40.358Z,0.18
2019-02-01T09:56:50.297Z,0.3
2019-02-01T09:58:00.043Z,0.23
2019-02-01T09:59:10.029Z,0.36
2019-02-01T10:00:19.989Z,0.29
2019-02-01T10:01:29.760Z,0.29
2019-02-01T10:02:39.718Z,0.33
2019-02-01T10:03:55.908Z,0.39
2019-02-01T10:05:05.750Z,0.42
2019-02-01T10:06:15.696Z,0.42
2019-02-01T10:07:25.662Z,0.47
2019-02-01T10:08:35.130Z,0.48
2019-02-01T10:09:45.091Z,0.44
2019-02-01T10:10:55.114Z,0.63
2019-02-01T10:12:05.072Z,0.49
2019-02-01T10:13:15.023Z,0.49
2019-02-01T10:14:24.737Z,0.67
2019-02-01T10:15:34.451Z,0.61
2019-02-01T10:16:44.152Z,0.55
2019-02-01T10:17:54.127Z,0.61
2019-02-01T10:19:04.003Z,0.58
2019-02-01T10:20:13.951Z,0.58
2019-02-01T10:21:23.663Z,0.64
2019-02-01T10:22:33.612Z,0.59
2019-02-01T10:23:45.886Z,0.58
2019-02-01T10:24:55.604Z,0.58
2019-02-01T10:26:08.196Z,0.59
2019-02-01T10:27:18.378Z,0.59
2019-02-01T10:28:28.078Z,0.61
2019-02-01T10:29:38.423Z,0.64
2019-02-01T10:30:48.491Z,0.59
2019-02-01T10:31:58.198Z,0.55
2019-02-01T10:33:07.635Z,0.68
2019-02-01T10:34:17.087Z,0.71
2019-02-01T10:35:27.059Z,0.73
2019-02-01T10:36:37.020Z,0.71
2019-02-01T10:37:47.005Z,0.73
2019-02-01T10:38:57.186Z,0.68
2019-02-01T10:40:07.136Z,0.73
2019-02-01T10:41:17.213Z,0.7
2019-02-01T10:42:26.946Z,0.76
2019-02-01T10:43:36.897Z,0.81
2019-02-01T10:44:46.600Z,0.84
2019-02-01T10:45:59.038Z,0.84
2019-02-01T10:47:15.950Z,0.86
2019-02-01T10:48:25.912Z,0.88
2019-02-01T10:49:36.120Z,1.03
2019-02-01T10:50:46.076Z,0.99
2019-02-01T10:51:55.783Z,1
2019-02-01T10:53:05.490Z,0.94
2019-02-01T10:54:15.242Z,0.99
2019-02-01T10:55:25.204Z,1.04
2019-02-01T10:56:37.148Z,1
2019-02-01T10:57:47.113Z,0.96
2019-02-01T10:58:57.039Z,1
2019-02-01T11:00:06.889Z,0.92
2019-02-01T11:01:18.686Z,0.92
2019-02-01T11:02:28.614Z,0.88
2019-02-01T11:03:38.557Z,0.89
2019-02-01T11:04:47.776Z,0.92
2019-02-01T11:05:57.840Z,0.89
2019-02-01T11:07:10.538Z,0.92
2019-02-01T11:08:20.236Z,0.95
2019-02-01T11:09:29.932Z,0.94
2019-02-01T11:10:39.632Z,1.03
2019-02-01T11:11:49.328Z,1.04
2019-02-01T11:12:59.288Z,1.14
2019-02-01T11:14:09.248Z,1.13
2019-02-01T11:15:18.440Z,1.21
2019-02-01T11:16:32.022Z,1.31
2019-02-01T11:17:41.977Z,1.27
2019-02-01T11:18:51.670Z,1.25
2019-02-01T11:20:01.119Z,1.24
2019-02-01T11:21:10.812Z,1.21
2019-02-01T11:22:20.770Z,1.24
2019-02-01T11:23:41.424Z,1.22
2019-02-01T11:24:51.406Z,1.36
2019-02-01T11:26:01.098Z,1.34
2019-02-01T11:27:11.048Z,1.43
2019-02-01T11:28:20.774Z,1.38
2019-02-01T11:29:30.473Z,1.32
2019-02-01T11:30:39.914Z,1.43
2019-02-01T11:31:49.615Z,1.57
2019-02-01T11:32:59.308Z,1.45
2019-02-01T11:34:09.264Z,1.49
2019-02-01T11:35:18.706Z,1.45
2019-02-01T11:36:28.411Z,1.5
2019-02-01T11:37:38.108Z,1.46
2019-02-01T11:38:48.112Z,1.48
2019-02-01T11:39:58.052Z,1.48
2019-02-01T11:41:08.054Z,1.52
2019-02-01T11:42:17.746Z,1.53
2019-02-01T11:43:27.721Z,1.52
2019-02-01T11:44:37.169Z,1.56
2019-02-01T11:45:47.100Z,1.52
2019-02-01T11:46:56.800Z,1.61
2019-02-01T11:48:06.751Z,1.64
2019-02-01T11:49:16.467Z,1.74
2019-02-01T11:50:26.424Z,1.76
2019-02-01T11:51:36.377Z,1.79
2019-02-01T11:52:53.233Z,1.84
2019-02-01T11:54:03.297Z,1.78
2019-02-01T11:55:13.014Z,1.84
2019-02-01T11:56:22.479Z,1.79
2019-02-01T11:57:32.455Z,1.85
2019-02-01T11:58:42.156Z,1.95
2019-02-01T11:59:51.630Z,2
2019-02-01T12:01:01.329Z,1.95
2019-02-01T12:02:12.810Z,1.86
2019-02-01T12:03:22.798Z,1.92
2019-02-01T12:04:32.767Z,1.88
2019-02-01T12:05:42.457Z,1.93
2019-02-01T12:06:52.505Z,1.85
2019-02-01T12:08:02.455Z,1.81
2019-02-01T12:09:12.424Z,1.78
2019-02-01T12:10:22.359Z,1.78
2019-02-01T12:11:32.365Z,1.78
2019-02-01T12:12:42.347Z,1.78
2019-02-01T12:13:52.315Z,1.75
2019-02-01T12:15:02.271Z,1.86
2019-02-01T12:16:11.961Z,1.81
2019-02-01T12:17:21.407Z,1.82
2019-02-01T12:18:31.093Z,1.78
2019-02-01T12:19:41.046Z,1.84
2019-02-01T12:20:51.128Z,1.76
2019-02-01T12:22:00.825Z,1.84
2019-02-01T12:23:10.790Z,1.78
2019-02-01T12:24:20.466Z,1.78
2019-02-01T12:25:30.426Z,1.81
2019-02-01T12:26:40.386Z,1.84
2019-02-01T12:27:50.084Z,1.85
2019-02-01T12:29:00.020Z,1.78
2019-02-01T12:30:09.956Z,1.82
2019-02-01T12:31:24.678Z,1.81
2019-02-01T12:32:34.382Z,1.92
2019-02-01T12:33:44.336Z,1.97
2019-02-01T12:34:54.298Z,1.95
2019-02-01T12:36:04.003Z,1.89
2019-02-01T12:37:13.698Z,2.04
2019-02-01T12:38:23.660Z,2.04
2019-02-01T12:39:33.724Z,2.07
2019-02-01T12:40:43.391Z,2.04
2019-02-01T12:41:53.094Z,2.05
2019-02-01T12:43:02.779Z,1.95
2019-02-01T12:44:12.484Z,2
2019-02-01T12:45:22.458Z,2.08
2019-02-01T12:46:32.169Z,2.07
2019-02-01T12:47:42.110Z,2.03
2019-02-01T12:48:52.063Z,2.15
2019-02-01T12:50:01.785Z,2.07
2019-02-01T12:51:11.735Z,2.04
2019-02-01T12:52:21.428Z,2.16
2019-02-01T12:53:31.143Z,2.22
2019-02-01T12:54:40.836Z,2.19
2019-02-01T12:55:50.532Z,2.3
2019-02-01T12:57:00.497Z,2.21
2019-02-01T12:58:09.955Z,2.21
2019-02-01T12:59:19.666Z,2.22
2019-02-01T13:00:29.362Z,2.32
2019-02-01T13:01:39.059Z,2.25
2019-02-01T13:02:48.776Z,2.26
2019-02-01T13:03:58.729Z,2.32
2019-02-01T13:05:08.689Z,2.25
2019-02-01T13:06:18.718Z,2.23
2019-02-01T13:07:28.678Z,2.21
2019-02-01T13:08:38.383Z,2.37
2019-02-01T13:09:48.461Z,2.33
2019-02-01T13:10:58.419Z,2.39
2019-02-01T13:12:08.353Z,2.32
2019-02-01T13:13:18.526Z,2.33
2019-02-01T13:14:28.215Z,2.32
2019-02-01T13:15:37.917Z,2.25
2019-02-01T13:16:47.881Z,2.3
2019-02-01T13:17:57.339Z,2.4
2019-02-01T13:19:07.283Z,2.39
2019-02-01T13:20:16.868Z,2.3
2019-02-01T13:21:26.813Z,2.37
2019-02-01T13:22:36.763Z,2.3
2019-02-01T13:23:46.453Z,2.3
2019-02-01T13:24:56.144Z,2.4
2019-02-01T13:26:06.685Z,2.33
2019-02-01T13:27:16.644Z,2.28
2019-02-01T13:28:26.602Z,2.28
2019-02-01T13:29:36.301Z,2.3
2019-02-01T13:30:46.252Z,2.39
2019-02-01T13:31:56.202Z,2.39
2019-02-01T13:33:05.664Z,2.43
2019-02-01T13:34:15.353Z,2.37
2019-02-01T13:35:25.343Z,2.39
2019-02-01T13:36:38.620Z,2.44
2019-02-01T13:37:48.549Z,2.4
2019-02-01T13:38:58.593Z,2.39
2019-02-01T13:40:08.550Z,2.43
2019-02-01T13:41:18.505Z,2.47
2019-02-01T13:42:28.213Z,2.46
2019-02-01T13:43:38.148Z,2.44
2019-02-01T13:44:47.849Z,2.39
2019-02-01T13:46:05.915Z,2.43
2019-02-01T13:47:15.629Z,2.44
2019-02-01T13:48:25.338Z,2.5
2019-02-01T13:49:35.283Z,2.41
2019-02-01T13:50:45.219Z,2.39
2019-02-01T13:51:54.690Z,2.44
2019-02-01T13:53:04.413Z,2.51
2019-02-01T13:54:14.105Z,2.51
2019-02-01T13:55:23.785Z,2.51
2019-02-01T13:56:33.485Z,2.57
2019-02-01T13:57:43.203Z,2.58
2019-02-01T13:58:53.146Z,2.59
2019-02-01T14:00:11.215Z,2.58
2019-02-01T14:01:20.675Z,2.61
2019-02-01T14:02:30.625Z,2.73
2019-02-01T14:03:40.559Z,2.64
2019-02-01T14:04:50.544Z,2.64
2019-02-01T14:06:00.327Z,2.59
2019-02-01T14:07:10.033Z,2.59
2019-02-01T14:08:19.741Z,2.51
2019-02-01T14:09:29.697Z,2.62
2019-02-01T14:10:39.436Z,2.69
2019-02-01T14:11:49.145Z,2.65
2019-02-01T14:12:59.278Z,2.68
2019-02-01T14:14:17.701Z,2.61
2019-02-01T14:15:29.668Z,2.59
2019-02-01T14:16:39.641Z,2.59
2019-02-01T14:17:49.363Z,2.61
2019-02-01T14:18:59.038Z,2.59
2019-02-01T14:20:10.694Z,2.58
2019-02-01T14:21:20.461Z,2.72
2019-02-01T14:22:30.444Z,2.65
2019-02-01T14:23:50.978Z,2.64
2019-02-01T14:25:00.957Z,2.65
2019-02-01T14:26:13.826Z,2.62
2019-02-01T14:27:23.511Z,2.58
2019-02-01T14:28:33.470Z,2.64
2019-02-01T14:29:43.196Z,2.57
2019-02-01T14:30:52.897Z,2.58
2019-02-01T14:32:02.617Z,2.65
2019-02-01T14:33:12.059Z,2.75
2019-02-01T14:34:22.015Z,2.77
2019-02-01T14:35:31.981Z,2.79
2019-02-01T14:36:41.699Z,2.73
2019-02-01T14:37:51.420Z,2.69
2019-02-01T14:39:01.117Z,2.68
2019-02-01T14:40:10.808Z,2.7
2019-02-01T14:41:20.754Z,2.65
2019-02-01T14:42:30.704Z,2.7
2019-02-01T14:43:40.642Z,2.62
2019-02-01T14:44:50.629Z,2.59
2019-02-01T14:46:11.954Z,2.62
2019-02-01T14:47:22.064Z,2.55
2019-02-01T14:48:42.982Z,2.59
2019-02-01T14:49:52.936Z,2.52
2019-02-01T14:51:03.155Z,2.54
2019-02-01T14:52:13.110Z,2.57
2019-02-01T14:53:23.095Z,2.57
2019-02-01T14:54:33.037Z,2.5
2019-02-01T14:55:42.497Z,2.47
2019-02-01T14:56:52.435Z,2.59
2019-02-01T14:58:02.371Z,2.57
2019-02-01T14:59:12.840Z,2.64
2019-02-01T15:00:22.552Z,2.69
2019-02-01T15:01:32.284Z,2.64
2019-02-01T15:02:42.069Z,2.65
2019-02-01T15:03:51.611Z,2.82
2019-02-01T15:05:01.356Z,2.65
2019-02-01T15:06:11.854Z,2.69
2019-02-01T15:07:21.799Z,2.65
2019-02-01T15:08:31.749Z,2.62
2019-02-01T15:09:41.461Z,2.58
2019-02-01T15:10:50.903Z,2.61
2019-02-01T15:12:00.853Z,2.73
2019-02-01T15:13:10.553Z,2.61
2019-02-01T15:14:20.519Z,2.55
2019-02-01T15:15:30.590Z,2.52
2019-02-01T15:16:43.909Z,2.51
2019-02-01T15:17:53.874Z,2.61